createdAt,value
2022-07-28T00:01:31.538Z,99.90
2022-07-28T00:04:02.108Z,99.90
2022-07-28T00:06:30.784Z,99.90
2022-07-28T00:08:59.497Z,99.90
2022-07-28T00:11:28.115Z,99.90
2022-07-28T00:13:57.105Z,99.90
2022-07-28T00:16:25.971Z,99.90
2022-07-28T00:18:54.661Z,99.90
2022-07-28T00:21:25.018Z,99.90
2022-07-28T00:23:53.618Z,99.90
2022-07-28T00:26:23.570Z,99.90
2022-07-28T00:28:52.372Z,99.90
2022-07-28T00:31:21.084Z,99.90
2022-07-28T00:33:49.775Z,99.90
2022-07-28T00:36:18.644Z,99.90
2022-07-28T00:38:54.653Z,99.90
2022-07-28T00:41:24.753Z,99.90
2022-07-28T00:43:54.065Z,99.90
2022-07-28T00:46:24.079Z,99.90
2022-07-28T00:48:55.017Z,99.90
2022-07-28T00:51:25.727Z,99.90
2022-07-28T00:53:56.785Z,99.90
2022-07-28T00:56:25.841Z,99.90
2022-07-28T00:58:54.783Z,99.90
2022-07-28T01:01:24.703Z,99.90
2022-07-28T01:03:56.101Z,99.90
2022-07-28T01:06:41.479Z,99.90
2022-07-28T01:09:28.824Z,99.90
2022-07-28T01:12:06.205Z,99.90
2022-07-28T01:14:39.427Z,99.90
2022-07-28T01:17:15.485Z,99.90
2022-07-28T01:19:51.715Z,99.90
2022-07-28T01:22:26.011Z,99.90
2022-07-28T01:25:04.577Z,99.90
2022-07-28T01:27:54.901Z,99.90
2022-07-28T01:30:40.471Z,99.90
2022-07-28T01:33:24.995Z,99.90
2022-07-28T01:35:58.407Z,99.90
2022-07-28T01:38:28.246Z,99.90
2022-07-28T01:40:59.101Z,99.90
2022-07-28T01:43:30.016Z,99.90
2022-07-28T01:46:02.472Z,99.90
2022-07-28T01:48:32.416Z,99.90
2022-07-28T01:51:02.678Z,99.90
2022-07-28T01:53:37.424Z,99.90
2022-07-28T01:56:08.590Z,99.90
2022-07-28T01:58:38.946Z,99.90
2022-07-28T02:01:10.715Z,99.90
2022-07-28T02:03:42.559Z,99.90
2022-07-28T02:06:13.410Z,99.90
2022-07-28T02:08:44.051Z,99.90
2022-07-28T02:11:30.030Z,99.90
2022-07-28T02:14:00.197Z,99.90
2022-07-28T02:16:31.425Z,99.90
2022-07-28T02:19:01.853Z,99.90
2022-07-28T02:21:32.451Z,99.90
2022-07-28T02:24:07.088Z,99.90
2022-07-28T02:26:38.543Z,99.90
2022-07-28T02:29:33.516Z,99.90
2022-07-28T02:32:24.121Z,99.90
2022-07-28T02:35:02.008Z,99.90
2022-07-28T02:37:37.265Z,99.90
2022-07-28T02:40:07.577Z,99.90
2022-07-28T02:42:37.822Z,99.90
2022-07-28T02:45:11.700Z,99.90
2022-07-28T02:47:47.070Z,99.90
2022-07-28T02:50:20.598Z,99.90
2022-07-28T02:52:50.641Z,99.90
2022-07-28T02:55:19.869Z,99.90
2022-07-28T02:57:56.267Z,99.90
2022-07-28T03:00:26.313Z,99.90
2022-07-28T03:02:57.497Z,99.90
2022-07-28T03:05:26.566Z,99.90
2022-07-28T03:07:57.783Z,99.90
2022-07-28T03:10:32.798Z,99.90
2022-07-28T03:13:05.410Z,99.90
2022-07-28T03:15:34.421Z,99.90
2022-07-28T03:18:06.487Z,99.90
2022-07-28T03:20:35.844Z,99.90
2022-07-28T03:23:05.603Z,99.90
2022-07-28T03:25:40.366Z,99.90
2022-07-28T03:28:14.032Z,99.90
2022-07-28T03:30:48.445Z,99.90
2022-07-28T03:33:19.302Z,99.90
2022-07-28T03:35:51.731Z,99.90
2022-07-28T03:38:23.808Z,99.90
2022-07-28T03:40:55.264Z,99.90
2022-07-28T03:43:26.933Z,99.90
2022-07-28T03:45:55.981Z,99.90
2022-07-28T03:48:31.190Z,99.90
2022-07-28T03:51:00.323Z,99.90
2022-07-28T03:53:31.012Z,99.90
2022-07-28T03:55:59.797Z,99.90
2022-07-28T03:58:29.423Z,99.90
2022-07-28T04:00:58.579Z,99.90
2022-07-28T04:03:42.361Z,99.90
2022-07-28T04:06:15.323Z,99.90
2022-07-28T04:08:44.530Z,99.90
2022-07-28T04:11:13.126Z,99.90
2022-07-28T04:13:41.709Z,99.90
2022-07-28T04:16:10.239Z,99.90
2022-07-28T04:18:39.476Z,99.90
2022-07-28T04:21:08.466Z,99.90
2022-07-28T04:23:38.550Z,99.90
2022-07-28T04:26:07.394Z,99.90
2022-07-28T04:28:36.099Z,99.90
2022-07-28T04:31:04.753Z,99.90
2022-07-28T04:33:33.377Z,99.90
2022-07-28T04:36:02.264Z,99.90
2022-07-28T04:38:30.886Z,99.90
2022-07-28T04:41:00.870Z,99.90
2022-07-28T04:43:29.565Z,99.90
2022-07-28T04:45:59.008Z,99.90
2022-07-28T04:48:27.791Z,99.90
2022-07-28T04:50:57.276Z,99.90
2022-07-28T04:53:25.914Z,99.90
2022-07-28T04:55:55.688Z,99.90
2022-07-28T04:58:25.821Z,99.90
2022-07-28T05:00:55.728Z,99.90
2022-07-28T05:03:25.088Z,99.90
2022-07-28T05:05:55.126Z,99.90
2022-07-28T05:08:25.590Z,99.90
2022-07-28T05:10:56.473Z,99.90
2022-07-28T05:13:33.386Z,99.90
2022-07-28T05:16:03.667Z,99.90
2022-07-28T05:18:32.437Z,99.90
2022-07-28T05:21:01.037Z,99.90
2022-07-28T05:23:29.636Z,99.90
2022-07-28T05:25:58.446Z,99.90
2022-07-28T05:28:28.600Z,99.90
2022-07-28T05:30:57.301Z,99.90
2022-07-28T05:33:31.999Z,99.90
2022-07-28T05:36:00.868Z,99.90
2022-07-28T05:38:30.412Z,99.90
2022-07-28T05:40:59.498Z,99.90
2022-07-28T05:43:29.497Z,99.90
2022-07-28T05:45:58.190Z,99.90
2022-07-28T05:48:27.100Z,99.90
2022-07-28T05:50:55.858Z,99.90
2022-07-28T05:53:24.903Z,99.90
2022-07-28T05:56:00.005Z,99.90
2022-07-28T05:58:32.001Z,99.90
2022-07-28T06:01:02.118Z,99.90
2022-07-28T06:03:39.784Z,99.90
2022-07-28T06:06:14.731Z,99.90
2022-07-28T06:08:46.780Z,99.90
2022-07-28T06:11:21.896Z,99.90
2022-07-28T06:13:53.829Z,99.90
2022-07-28T06:16:23.459Z,99.90
2022-07-28T06:18:52.569Z,99.90
2022-07-28T06:21:23.289Z,99.90
2022-07-28T06:23:51.982Z,99.90
2022-07-28T06:26:23.381Z,99.90
2022-07-28T06:28:54.324Z,99.90
2022-07-28T06:31:23.216Z,99.90
2022-07-28T06:33:51.891Z,99.90
2022-07-28T06:36:20.686Z,99.90
2022-07-28T06:38:49.635Z,99.90
2022-07-28T06:41:18.239Z,99.90
2022-07-28T06:43:46.882Z,99.90
2022-07-28T06:46:19.389Z,99.90
2022-07-28T06:48:48.181Z,99.90
2022-07-28T06:51:19.273Z,99.90
2022-07-28T06:53:49.432Z,99.90
2022-07-28T06:56:19.750Z,99.90
2022-07-28T06:58:50.367Z,99.90
2022-07-28T07:01:20.422Z,99.90
2022-07-28T07:03:49.085Z,99.90
2022-07-28T07:06:17.741Z,99.90
2022-07-28T07:08:47.360Z,99.90
2022-07-28T07:11:16.182Z,99.90
2022-07-28T07:13:44.858Z,99.90
2022-07-28T07:16:13.503Z,99.90
2022-07-28T07:18:43.468Z,99.90
2022-07-28T07:21:12.263Z,99.90
2022-07-28T07:23:40.851Z,99.90
2022-07-28T07:26:09.606Z,99.90
2022-07-28T07:28:38.893Z,99.90
2022-07-28T07:31:07.616Z,99.90
2022-07-28T07:33:36.302Z,99.90
2022-07-28T07:36:07.002Z,99.90
2022-07-28T07:38:35.638Z,99.90
2022-07-28T07:41:04.314Z,99.90
2022-07-28T07:43:32.973Z,99.90
2022-07-28T07:46:01.697Z,99.90
2022-07-28T07:48:30.334Z,99.90
2022-07-28T07:50:58.945Z,99.90
2022-07-28T07:53:29.214Z,99.90
2022-07-28T07:55:57.808Z,99.90
2022-07-28T07:58:26.654Z,99.90
2022-07-28T08:00:55.975Z,99.90
2022-07-28T08:03:24.602Z,99.90
2022-07-28T08:05:57.504Z,99.90
2022-07-28T08:08:26.366Z,99.90
2022-07-28T08:10:56.887Z,99.90
2022-07-28T08:13:25.581Z,99.90
2022-07-28T08:15:54.489Z,99.90
2022-07-28T08:18:23.115Z,99.90
2022-07-28T08:20:51.666Z,99.90
2022-07-28T08:23:25.820Z,99.90
2022-07-28T08:25:57.064Z,99.90
2022-07-28T08:28:25.778Z,99.90
2022-07-28T08:30:54.556Z,99.90
2022-07-28T08:33:23.277Z,99.90
2022-07-28T08:35:52.002Z,99.90
2022-07-28T08:38:20.811Z,99.90
2022-07-28T08:40:51.707Z,99.90
2022-07-28T08:43:33.454Z,99.90
2022-07-28T08:46:04.359Z,99.90
2022-07-28T08:48:33.989Z,99.90
2022-07-28T08:51:05.159Z,99.90
2022-07-28T08:53:35.400Z,99.90
2022-07-28T08:56:06.398Z,99.90
2022-07-28T08:58:37.962Z,99.90
2022-07-28T09:01:08.985Z,99.90
2022-07-28T09:03:39.083Z,99.90
2022-07-28T09:06:08.647Z,99.90
2022-07-28T09:08:37.732Z,99.90
2022-07-28T09:11:08.163Z,99.60
2022-07-28T09:13:38.508Z,98.30
2022-07-28T09:16:07.770Z,98.20
2022-07-28T09:18:36.822Z,97.60
2022-07-28T09:21:05.483Z,97.00
2022-07-28T09:23:44.722Z,96.70
2022-07-28T09:26:14.056Z,95.70
2022-07-28T09:28:51.891Z,95.20
2022-07-28T09:31:21.665Z,94.40
2022-07-28T09:34:00.630Z,93.70
2022-07-28T09:36:29.952Z,93.20
2022-07-28T09:38:59.259Z,93.10
2022-07-28T09:41:27.913Z,92.20
2022-07-28T09:43:58.019Z,91.50
2022-07-28T09:46:29.821Z,91.50
2022-07-28T09:49:00.391Z,91.60
2022-07-28T09:51:32.072Z,91.50
2022-07-28T09:54:09.992Z,91.10
2022-07-28T09:56:39.167Z,90.70
2022-07-28T09:59:09.376Z,91.20
2022-07-28T10:01:53.382Z,90.50
2022-07-28T10:04:33.432Z,90.00
2022-07-28T10:07:06.842Z,90.00
2022-07-28T10:09:35.769Z,90.00
2022-07-28T10:12:18.555Z,89.40
2022-07-28T10:14:50.394Z,85.80
2022-07-28T10:17:27.214Z,88.40
2022-07-28T10:19:57.957Z,88.60
2022-07-28T10:22:29.728Z,88.00
2022-07-28T10:25:01.750Z,87.40
2022-07-28T10:27:31.267Z,86.00
2022-07-28T10:30:03.772Z,85.00
2022-07-28T10:32:35.784Z,83.60
2022-07-28T10:35:06.432Z,83.50
2022-07-28T10:37:39.159Z,83.80
2022-07-28T10:40:10.968Z,82.20
2022-07-28T10:42:41.527Z,81.70
2022-07-28T10:45:12.336Z,82.00
2022-07-28T10:47:42.446Z,81.10
2022-07-28T10:50:11.638Z,80.50
2022-07-28T10:52:53.494Z,79.80
2022-07-28T10:55:32.413Z,77.60
2022-07-28T10:58:11.252Z,77.40
2022-07-28T11:00:59.933Z,73.70
2022-07-28T11:03:43.193Z,75.20
2022-07-28T11:06:28.718Z,76.00
2022-07-28T11:08:58.977Z,74.40
2022-07-28T11:11:46.923Z,74.40
2022-07-28T11:14:39.438Z,72.70
2022-07-28T11:17:24.289Z,72.30
2022-07-28T11:20:27.257Z,71.70
2022-07-28T11:22:51.835Z,71.60
2022-07-28T11:25:22.654Z,72.10
2022-07-28T11:28:05.500Z,71.50
2022-07-28T11:30:54.766Z,71.50
2022-07-28T11:33:27.525Z,71.00
2022-07-28T11:35:58.510Z,72.50
2022-07-28T11:38:30.090Z,71.70
2022-07-28T11:40:58.831Z,71.00
2022-07-28T11:43:37.925Z,70.00
2022-07-28T11:46:24.711Z,69.80
2022-07-28T11:49:24.896Z,69.60
2022-07-28T11:52:21.236Z,68.90
2022-07-28T11:54:57.716Z,66.20
2022-07-28T11:57:29.565Z,68.70
2022-07-28T12:00:00.808Z,68.50
2022-07-28T12:02:31.790Z,68.60
2022-07-28T12:05:05.836Z,67.40
2022-07-28T12:07:38.278Z,68.00
2022-07-28T12:10:54.442Z,67.90
2022-07-28T12:13:29.128Z,66.40
2022-07-28T12:15:58.330Z,66.90
2022-07-28T12:18:27.417Z,66.70
2022-07-28T12:21:01.684Z,66.20
2022-07-28T12:23:39.217Z,66.30
2022-07-28T12:26:31.359Z,65.20
2022-07-28T12:29:02.082Z,64.50
2022-07-28T12:31:37.958Z,65.80
2022-07-28T12:34:09.618Z,65.80
2022-07-28T12:36:40.049Z,65.40
2022-07-28T12:39:13.002Z,65.40
2022-07-28T12:41:41.898Z,66.40
2022-07-28T12:44:12.087Z,66.10
2022-07-28T12:46:48.825Z,66.00
2022-07-28T12:49:23.714Z,65.50
2022-07-28T12:51:53.727Z,66.00
2022-07-28T12:54:35.741Z,65.00
2022-07-28T12:57:06.582Z,64.70
2022-07-28T12:59:36.200Z,64.40
2022-07-28T13:02:05.385Z,64.30
2022-07-28T13:04:43.013Z,64.50
2022-07-28T13:07:14.887Z,63.80
2022-07-28T13:10:00.055Z,63.80
2022-07-28T13:12:30.900Z,63.50
2022-07-28T13:15:01.721Z,64.10
2022-07-28T13:17:49.162Z,63.90
2022-07-28T13:20:18.187Z,64.20
2022-07-28T13:22:48.167Z,64.20
2022-07-28T13:25:17.230Z,64.50
2022-07-28T13:27:50.799Z,63.70
2022-07-28T13:30:23.359Z,63.90
2022-07-28T13:32:54.779Z,62.90
2022-07-28T13:35:23.758Z,61.80
2022-07-28T13:37:53.796Z,62.40
2022-07-28T13:40:22.820Z,63.40
2022-07-28T13:42:53.083Z,63.50
2022-07-28T13:45:25.024Z,61.30
2022-07-28T13:47:58.645Z,60.90
2022-07-28T13:50:27.681Z,59.80
2022-07-28T13:52:57.893Z,58.60
2022-07-28T13:55:27.694Z,59.00
2022-07-28T13:57:56.683Z,59.10
2022-07-28T14:00:26.012Z,60.20
2022-07-28T14:02:54.798Z,60.60
2022-07-28T14:05:23.449Z,60.50
2022-07-28T14:07:52.131Z,60.80
2022-07-28T14:10:26.703Z,60.00
2022-07-28T14:12:59.859Z,59.90
2022-07-28T14:15:28.636Z,59.30
2022-07-28T14:17:57.613Z,59.40
2022-07-28T14:20:26.332Z,59.50
2022-07-28T14:22:55.076Z,59.40
2022-07-28T14:25:25.750Z,59.50
2022-07-28T14:27:56.037Z,59.30
2022-07-28T14:30:28.448Z,60.30
2022-07-28T14:32:57.960Z,58.90
2022-07-28T14:35:27.049Z,58.80
2022-07-28T14:38:35.590Z,58.30
2022-07-28T14:40:45.879Z,57.90
2022-07-28T14:43:14.524Z,58.10
2022-07-28T14:45:51.270Z,57.60
2022-07-28T14:48:32.666Z,56.60
2022-07-28T14:51:01.367Z,56.80
2022-07-28T14:53:29.927Z,57.10
2022-07-28T14:55:59.996Z,57.60
2022-07-28T14:58:28.593Z,57.90
2022-07-28T15:00:57.428Z,58.10
2022-07-28T15:03:35.765Z,57.80
2022-07-28T15:06:05.440Z,58.60
2022-07-28T15:08:34.134Z,58.80
2022-07-28T15:11:04.107Z,58.60
2022-07-28T15:13:32.704Z,58.20
2022-07-28T15:16:01.503Z,58.10
2022-07-28T15:18:30.132Z,58.40
2022-07-28T15:20:58.821Z,58.10
2022-07-28T15:23:28.229Z,57.50
2022-07-28T15:25:59.572Z,57.50
2022-07-28T15:28:29.576Z,57.30
2022-07-28T15:30:58.489Z,57.20
2022-07-28T15:33:27.510Z,57.50
2022-07-28T15:36:00.510Z,58.20
2022-07-28T15:38:31.661Z,58.70
2022-07-28T15:41:00.820Z,59.10
2022-07-28T15:43:32.781Z,58.80
2022-07-28T15:46:05.903Z,58.90
2022-07-28T15:48:34.557Z,59.30
2022-07-28T15:51:03.146Z,59.40
2022-07-28T15:53:31.940Z,59.50
2022-07-28T15:56:00.734Z,59.50
2022-07-28T15:58:31.018Z,59.50
2022-07-28T16:01:01.573Z,58.90
2022-07-28T16:03:30.985Z,58.30
2022-07-28T16:05:59.606Z,57.80
2022-07-28T16:08:28.472Z,57.80
2022-07-28T16:10:59.700Z,57.90
2022-07-28T16:13:35.586Z,58.50
2022-07-28T16:16:08.349Z,59.00
2022-07-28T16:18:38.147Z,59.40
2022-07-28T16:21:08.132Z,59.70
2022-07-28T16:23:37.590Z,59.80
2022-07-28T16:26:09.181Z,59.80
2022-07-28T16:28:38.109Z,59.40
2022-07-28T16:31:08.402Z,59.80
2022-07-28T16:33:37.005Z,60.40
2022-07-28T16:36:06.510Z,60.50
2022-07-28T16:38:35.139Z,61.30
2022-07-28T16:41:03.709Z,61.60
2022-07-28T16:43:33.535Z,62.90
2022-07-28T16:46:03.168Z,62.70
2022-07-28T16:48:33.267Z,62.50
2022-07-28T16:51:02.941Z,62.40
2022-07-28T16:53:31.592Z,62.70
2022-07-28T16:56:00.379Z,62.80
2022-07-28T16:58:28.984Z,62.70
2022-07-28T17:00:57.897Z,63.20
2022-07-28T17:03:27.691Z,63.30
2022-07-28T17:05:58.071Z,63.50
2022-07-28T17:08:27.159Z,63.80
2022-07-28T17:10:56.750Z,63.80
2022-07-28T17:13:26.509Z,64.10
2022-07-28T17:15:55.783Z,64.40
2022-07-28T17:18:24.810Z,64.80
2022-07-28T17:20:53.591Z,65.10
2022-07-28T17:23:23.638Z,65.30
2022-07-28T17:28:41.308Z,65.80
2022-07-28T17:31:10.273Z,66.10
2022-07-28T17:33:38.945Z,66.50
2022-07-28T17:36:08.294Z,66.80
2022-07-28T17:38:38.310Z,67.20
2022-07-28T17:41:09.196Z,67.30
2022-07-28T17:43:42.298Z,67.20
2022-07-28T17:46:14.924Z,67.20
2022-07-28T17:48:44.332Z,67.50
2022-07-28T17:51:13.767Z,68.00
2022-07-28T17:53:45.157Z,68.10
2022-07-28T17:56:14.654Z,68.20
2022-07-28T17:58:43.455Z,68.40
2022-07-28T18:01:13.829Z,68.70
2022-07-28T18:03:57.770Z,69.00
2022-07-28T18:06:32.395Z,69.30
2022-07-28T18:09:06.332Z,69.40
2022-07-28T18:11:55.693Z,69.60
2022-07-28T18:14:26.150Z,69.70
2022-07-28T18:16:54.885Z,69.80
2022-07-28T18:19:23.647Z,70.10
2022-07-28T18:21:52.473Z,70.10
2022-07-28T18:24:22.996Z,70.10
2022-07-28T18:26:52.545Z,70.30
2022-07-28T18:29:22.066Z,70.60
2022-07-28T18:31:51.703Z,70.90
2022-07-28T18:34:24.850Z,71.00
2022-07-28T18:36:54.828Z,71.10
2022-07-28T18:39:24.931Z,71.20
2022-07-28T18:41:56.188Z,71.20
2022-07-28T18:44:24.881Z,71.70
2022-07-28T18:46:53.532Z,72.10
2022-07-28T18:49:22.290Z,72.50
2022-07-28T18:51:50.952Z,73.00
2022-07-28T18:54:27.110Z,73.20
2022-07-28T18:56:57.906Z,73.80
2022-07-28T18:59:27.082Z,73.90
2022-07-28T19:01:55.900Z,74.40
2022-07-28T19:04:24.883Z,74.80
2022-07-28T19:06:53.604Z,74.80
2022-07-28T19:09:22.261Z,75.80
2022-07-28T19:11:51.095Z,75.80
2022-07-28T19:14:21.311Z,76.00
2022-07-28T19:16:50.215Z,76.00
2022-07-28T19:19:18.832Z,76.50
2022-07-28T19:21:49.455Z,76.70
2022-07-28T19:24:18.943Z,77.20
2022-07-28T19:26:51.574Z,77.60
2022-07-28T19:29:23.058Z,78.40
2022-07-28T19:31:51.590Z,78.10
2022-07-28T19:34:20.362Z,78.20
2022-07-28T19:36:49.136Z,78.40
2022-07-28T19:39:17.884Z,78.70
2022-07-28T19:41:47.023Z,79.00
2022-07-28T19:44:16.561Z,78.90
2022-07-28T19:46:48.864Z,79.20
2022-07-28T19:49:17.953Z,78.90
2022-07-28T19:51:46.625Z,79.40
2022-07-28T19:54:16.491Z,79.80
2022-07-28T19:56:49.031Z,80.20
2022-07-28T19:59:18.193Z,80.60
2022-07-28T20:01:50.709Z,80.90
2022-07-28T20:04:20.043Z,81.10
2022-07-28T20:06:54.887Z,81.40
2022-07-28T20:09:24.234Z,81.60
2022-07-28T20:11:53.126Z,81.90
2022-07-28T20:14:21.806Z,82.30
2022-07-28T20:16:52.310Z,82.60
2022-07-28T20:19:20.971Z,83.00
2022-07-28T20:21:49.574Z,83.40
2022-07-28T20:24:19.862Z,83.60
2022-07-28T20:26:48.579Z,84.10
2022-07-28T20:29:17.265Z,84.30
2022-07-28T20:31:45.969Z,84.30
2022-07-28T20:34:16.325Z,84.90
2022-07-28T20:36:45.221Z,85.00
2022-07-28T20:39:34.756Z,85.30
2022-07-28T20:42:02.574Z,85.60
2022-07-28T20:44:31.707Z,86.10
2022-07-28T20:47:02.278Z,86.80
2022-07-28T20:49:32.549Z,87.00
2022-07-28T20:52:01.477Z,87.30
2022-07-28T20:54:30.762Z,87.90
2022-07-28T20:56:59.446Z,88.50
2022-07-28T20:59:28.301Z,88.80
2022-07-28T21:01:57.272Z,89.30
2022-07-28T21:04:27.394Z,89.80
2022-07-28T21:07:04.028Z,90.00
2022-07-28T21:09:32.953Z,90.20
2022-07-28T21:12:01.820Z,90.40
2022-07-28T21:14:32.269Z,90.70
2022-07-28T21:17:01.069Z,91.00
2022-07-28T21:19:29.830Z,91.30
2022-07-28T21:21:59.930Z,91.40
2022-07-28T21:24:29.481Z,91.50
2022-07-28T21:26:58.108Z,92.00
2022-07-28T21:29:26.009Z,92.30
2022-07-28T21:32:02.056Z,92.50
2022-07-28T21:34:35.577Z,92.70
2022-07-28T21:37:07.047Z,92.90
2022-07-28T21:39:36.841Z,93.20
2022-07-28T21:42:08.351Z,93.50
2022-07-28T21:44:38.083Z,93.80
2022-07-28T21:47:07.068Z,94.10
2022-07-28T21:49:35.877Z,94.20
2022-07-28T21:52:06.372Z,94.70
2022-07-28T21:54:34.951Z,95.10
2022-07-28T21:57:03.873Z,95.30
2022-07-28T21:59:45.142Z,95.70
2022-07-28T22:02:17.272Z,96.30
2022-07-28T22:04:46.023Z,96.80
2022-07-28T22:07:16.109Z,97.10
2022-07-28T22:09:44.855Z,97.50
2022-07-28T22:12:13.624Z,97.80
2022-07-28T22:14:42.275Z,98.20
2022-07-28T22:17:10.916Z,98.50
2022-07-28T22:19:42.311Z,98.80
2022-07-28T22:22:10.957Z,99.60
2022-07-28T22:24:41.085Z,99.90
2022-07-28T22:27:09.811Z,99.90
2022-07-28T22:29:38.824Z,99.90
2022-07-28T22:32:12.240Z,99.90
2022-07-28T22:34:40.986Z,99.90
2022-07-28T22:37:13.064Z,99.90
2022-07-28T22:39:43.370Z,99.90
2022-07-28T22:42:11.959Z,99.90
2022-07-28T22:44:40.625Z,99.90
2022-07-28T22:47:09.469Z,99.90
2022-07-28T22:49:38.656Z,99.90
2022-07-28T22:52:07.492Z,99.90
2022-07-28T22:54:39.104Z,99.90
2022-07-28T22:57:09.219Z,99.90
2022-07-28T22:59:40.003Z,99.90
2022-07-28T23:02:11.094Z,99.90
2022-07-28T23:04:40.778Z,99.90
2022-07-28T23:07:12.435Z,99.90
2022-07-28T23:09:43.863Z,99.90
2022-07-28T23:12:14.197Z,99.90
2022-07-28T23:14:42.970Z,99.90
2022-07-28T23:17:11.714Z,99.90
2022-07-28T23:19:40.400Z,99.90
2022-07-28T23:22:09.136Z,99.90
2022-07-28T23:24:37.861Z,99.90
2022-07-28T23:27:06.665Z,99.90
2022-07-28T23:29:36.708Z,99.90
2022-07-28T23:32:10.734Z,99.90
2022-07-28T23:34:42.642Z,99.90
2022-07-28T23:37:11.304Z,99.90
2022-07-28T23:39:40.024Z,99.90
2022-07-28T23:42:08.913Z,99.90
2022-07-28T23:44:39.372Z,99.90
2022-07-28T23:47:08.261Z,99.90
2022-07-28T23:49:36.951Z,99.90
2022-07-28T23:52:06.173Z,99.90
2022-07-28T23:54:34.921Z,99.90
2022-07-28T23:57:03.547Z,99.90
2022-07-28T23:59:32.751Z,99.90
